createdAt,value
2022-12-24T00:00:59.075Z,7.25
2022-12-24T00:03:29.717Z,7.28
2022-12-24T00:06:00.336Z,7.22
2022-12-24T00:08:30.827Z,7.08
2022-12-24T00:11:01.710Z,7.21
2022-12-24T00:13:34.747Z,7.25
2022-12-24T00:16:05.419Z,7.24
2022-12-24T00:18:45.442Z,7.26
2022-12-24T00:21:19.019Z,7.21
2022-12-24T00:23:49.506Z,7.28
2022-12-24T00:26:20.015Z,7.29
2022-12-24T00:28:53.673Z,7.31
2022-12-24T00:31:24.361Z,7.28
2022-12-24T00:33:55.962Z,7.25
2022-12-24T00:36:27.599Z,7.26
2022-12-24T00:38:58.393Z,7.32
2022-12-24T00:41:29.505Z,7.31
2022-12-24T00:44:10.249Z,7.34
2022-12-24T00:46:42.896Z,7.31
2022-12-24T00:49:15.465Z,7.30
2022-12-24T00:51:46.070Z,7.26
2022-12-24T00:54:17.704Z,7.31
2022-12-24T00:56:51.214Z,7.11
2022-12-24T00:59:24.205Z,7.32
2022-12-24T01:02:01.058Z,7.42
2022-12-24T01:04:43.947Z,7.39
2022-12-24T01:07:14.438Z,7.26
2022-12-24T01:09:44.828Z,7.31
2022-12-24T01:12:15.560Z,7.31
2022-12-24T01:14:48.741Z,7.29
2022-12-24T01:17:21.484Z,7.20
2022-12-24T01:19:52.239Z,7.27
2022-12-24T01:22:23.692Z,7.32
2022-12-24T01:24:54.202Z,7.34
2022-12-24T01:27:24.961Z,7.34
2022-12-24T01:29:58.146Z,7.31
2022-12-24T01:32:28.531Z,7.31
2022-12-24T01:34:59.993Z,7.32
2022-12-24T01:37:32.951Z,7.33
2022-12-24T01:40:15.771Z,7.35
2022-12-24T01:43:02.421Z,7.31
2022-12-24T01:45:45.498Z,7.36
2022-12-24T01:48:48.647Z,7.40
2022-12-24T01:51:32.735Z,7.41
2022-12-24T01:54:08.189Z,7.31
2022-12-24T01:56:42.943Z,7.39
2022-12-24T01:59:17.010Z,7.41
2022-12-24T02:01:51.418Z,7.48
2022-12-24T02:04:31.212Z,7.49
2022-12-24T02:07:01.813Z,7.56
2022-12-24T02:09:36.003Z,7.61
2022-12-24T02:12:08.799Z,7.63
2022-12-24T02:14:40.161Z,7.66
2022-12-24T02:17:23.676Z,7.76
2022-12-24T02:20:28.017Z,7.84
2022-12-24T02:23:30.126Z,7.75
2022-12-24T02:26:13.159Z,7.92
2022-12-24T02:29:02.426Z,8.24
2022-12-24T02:31:41.767Z,8.38
2022-12-24T02:34:18.233Z,8.47
2022-12-24T02:36:57.196Z,8.46
2022-12-24T02:39:34.773Z,8.56
2022-12-24T02:42:10.704Z,8.63
2022-12-24T02:44:56.750Z,8.67
2022-12-24T02:47:34.178Z,8.72
2022-12-24T02:50:05.481Z,8.86
2022-12-24T02:52:38.137Z,8.96
2022-12-24T02:55:15.225Z,9.02
2022-12-24T02:58:02.581Z,9.11
2022-12-24T03:00:45.299Z,9.02
2022-12-24T03:03:38.962Z,9.26
2022-12-24T03:06:20.815Z,9.32
2022-12-24T03:09:01.626Z,9.38
2022-12-24T03:11:32.431Z,9.41
2022-12-24T03:14:03.705Z,9.48
2022-12-24T03:16:34.325Z,9.50
2022-12-24T03:19:07.959Z,9.36
2022-12-24T03:21:42.761Z,9.43
2022-12-24T03:24:14.086Z,9.41
2022-12-24T03:26:45.555Z,9.41
2022-12-24T03:29:16.278Z,9.26
2022-12-24T03:31:50.629Z,9.41
2022-12-24T03:34:23.884Z,9.38
2022-12-24T03:36:54.543Z,9.39
2022-12-24T03:39:25.675Z,9.40
2022-12-24T03:41:58.241Z,9.41
2022-12-24T03:44:28.776Z,9.43
2022-12-24T03:46:59.790Z,9.44
2022-12-24T03:49:33.137Z,9.46
2022-12-24T03:52:03.637Z,9.51
2022-12-24T03:54:35.630Z,9.55
2022-12-24T03:57:06.456Z,9.59
2022-12-24T03:59:37.152Z,9.58
2022-12-24T04:02:10.685Z,9.65
2022-12-24T04:04:43.964Z,9.68
2022-12-24T04:07:14.604Z,9.68
2022-12-24T04:09:45.345Z,9.71
2022-12-24T04:12:16.590Z,9.68
2022-12-24T04:14:47.134Z,9.66
2022-12-24T04:17:17.613Z,9.63
2022-12-24T04:19:50.799Z,9.65
2022-12-24T04:22:21.453Z,9.65
2022-12-24T04:24:52.339Z,9.66
2022-12-24T04:27:29.955Z,9.67
2022-12-24T04:30:01.659Z,9.67
2022-12-24T04:32:35.609Z,9.67
2022-12-24T04:35:09.562Z,9.64
2022-12-24T04:37:39.946Z,9.62
2022-12-24T04:40:13.983Z,9.60
2022-12-24T04:42:45.634Z,9.43
2022-12-24T04:45:16.247Z,9.61
2022-12-24T04:47:46.875Z,9.61
2022-12-24T04:50:20.474Z,9.64
2022-12-24T04:52:50.919Z,9.65
2022-12-24T04:55:21.733Z,9.62
2022-12-24T04:57:53.192Z,9.64
2022-12-24T05:00:24.533Z,9.64
2022-12-24T05:03:01.717Z,9.65
2022-12-24T05:05:38.000Z,9.63
2022-12-24T05:08:08.990Z,9.61
2022-12-24T05:10:39.510Z,9.66
2022-12-24T05:13:09.983Z,9.68
2022-12-24T05:15:40.557Z,9.67
2022-12-24T05:18:15.599Z,9.70
2022-12-24T05:20:49.688Z,9.71
2022-12-24T05:23:33.725Z,9.71
2022-12-24T05:26:16.683Z,9.61
2022-12-24T05:28:49.119Z,9.57
2022-12-24T05:31:19.797Z,9.51
2022-12-24T05:33:51.166Z,9.50
2022-12-24T05:36:25.867Z,9.44
2022-12-24T05:38:56.499Z,9.47
2022-12-24T05:41:27.463Z,9.49
2022-12-24T05:43:58.043Z,9.51
2022-12-24T05:46:29.075Z,9.48
2022-12-24T05:48:59.821Z,9.41
2022-12-24T05:51:32.908Z,9.36
2022-12-24T05:54:03.488Z,9.31
2022-12-24T05:56:33.914Z,9.25
2022-12-24T05:59:04.564Z,9.19
2022-12-24T06:01:35.735Z,9.14
2022-12-24T06:04:06.543Z,9.18
2022-12-24T06:06:39.766Z,8.97
2022-12-24T06:09:10.662Z,9.19
2022-12-24T06:11:56.126Z,9.23
2022-12-24T06:14:26.898Z,9.25
2022-12-24T06:16:57.508Z,9.22
2022-12-24T06:19:28.147Z,9.19
2022-12-24T06:22:01.325Z,9.25
2022-12-24T06:24:31.931Z,9.20
2022-12-24T06:27:02.419Z,9.33
2022-12-24T06:29:33.917Z,9.35
2022-12-24T06:32:04.359Z,9.39
2022-12-24T06:34:34.888Z,9.32
2022-12-24T06:37:08.066Z,9.44
2022-12-24T06:39:38.499Z,9.46
2022-12-24T06:42:10.786Z,9.47
2022-12-24T06:44:41.392Z,9.51
2022-12-24T06:47:12.059Z,9.49
2022-12-24T06:49:42.560Z,9.56
2022-12-24T06:52:15.707Z,9.58
2022-12-24T06:54:58.465Z,9.58
2022-12-24T06:57:29.190Z,9.55
2022-12-24T07:00:00.124Z,9.50
2022-12-24T07:02:32.028Z,9.47
2022-12-24T07:05:02.646Z,9.39
2022-12-24T07:07:35.783Z,9.33
2022-12-24T07:10:07.509Z,9.31
2022-12-24T07:12:38.188Z,9.25
2022-12-24T07:15:12.713Z,9.15
2022-12-24T07:17:43.705Z,9.12
2022-12-24T07:20:17.512Z,9.07
2022-12-24T07:22:50.601Z,9.02
2022-12-24T07:25:21.760Z,8.88
2022-12-24T07:27:52.263Z,8.99
2022-12-24T07:30:22.938Z,9.07
2022-12-24T07:32:54.796Z,9.14
2022-12-24T07:35:25.486Z,9.19
2022-12-24T07:37:59.014Z,9.18
2022-12-24T07:40:29.459Z,9.13
2022-12-24T07:43:01.694Z,9.08
2022-12-24T07:45:32.323Z,9.06
2022-12-24T07:48:03.635Z,9.00
2022-12-24T07:50:37.161Z,8.99
2022-12-24T07:53:10.253Z,8.94
2022-12-24T07:55:40.878Z,8.92
2022-12-24T07:58:11.837Z,8.90
2022-12-24T08:00:42.321Z,8.92
2022-12-24T08:03:19.134Z,8.89
2022-12-24T08:05:52.720Z,8.96
2022-12-24T08:08:26.093Z,8.98
2022-12-24T08:10:59.147Z,9.02
2022-12-24T08:13:29.573Z,9.04
2022-12-24T08:16:00.611Z,8.99
2022-12-24T08:18:31.426Z,8.95
2022-12-24T08:21:02.170Z,8.93
2022-12-24T08:23:35.338Z,8.96
2022-12-24T08:26:06.633Z,9.00
2022-12-24T08:28:38.124Z,8.96
2022-12-24T08:31:09.187Z,9.05
2022-12-24T08:33:39.900Z,9.11
2022-12-24T08:36:12.700Z,9.11
2022-12-24T08:38:45.891Z,9.26
2022-12-24T08:41:17.729Z,9.34
2022-12-24T08:43:48.207Z,9.40
2022-12-24T08:46:21.117Z,9.42
2022-12-24T08:48:52.043Z,9.42
2022-12-24T08:51:23.087Z,9.43
2022-12-24T08:53:56.217Z,9.41
2022-12-24T08:56:26.910Z,9.41
2022-12-24T08:58:57.399Z,9.36
2022-12-24T09:01:32.108Z,9.31
2022-12-24T09:04:05.143Z,9.24
2022-12-24T09:06:36.039Z,9.11
2022-12-24T09:09:09.845Z,9.01
2022-12-24T09:11:40.339Z,8.98
2022-12-24T09:14:10.853Z,8.76
2022-12-24T09:16:41.610Z,8.93
2022-12-24T09:19:15.097Z,8.92
2022-12-24T09:21:45.681Z,8.92
2022-12-24T09:24:18.877Z,8.93
2022-12-24T09:26:55.519Z,8.96
2022-12-24T09:29:28.043Z,8.98
2022-12-24T09:31:59.216Z,9.01
2022-12-24T09:34:30.861Z,8.99
2022-12-24T09:37:03.267Z,9.05
2022-12-24T09:39:39.548Z,8.92
2022-12-24T09:42:24.956Z,9.09
2022-12-24T09:45:01.956Z,9.28
2022-12-24T09:47:39.683Z,9.34
2022-12-24T09:50:31.303Z,9.39
2022-12-24T09:53:07.788Z,9.58
2022-12-24T09:55:47.014Z,9.82
2022-12-24T09:58:27.978Z,9.96
2022-12-24T10:00:59.948Z,9.98
2022-12-24T10:03:30.937Z,10.02
2022-12-24T10:06:10.878Z,10.04
2022-12-24T10:08:56.177Z,10.02
2022-12-24T10:11:32.867Z,9.94
2022-12-24T10:14:15.630Z,9.96
2022-12-24T10:17:06.951Z,10.08
2022-12-24T10:19:51.205Z,10.11
2022-12-24T10:22:30.238Z,10.04
2022-12-24T10:25:07.177Z,10.19
2022-12-24T10:27:42.548Z,10.24
2022-12-24T10:30:19.769Z,10.09
2022-12-24T10:32:52.195Z,10.30
2022-12-24T10:35:26.677Z,10.34
2022-12-24T10:37:58.304Z,10.41
2022-12-24T10:40:40.884Z,10.50
2022-12-24T10:43:18.284Z,10.61
2022-12-24T10:45:54.682Z,10.61
2022-12-24T10:48:30.908Z,10.69
2022-12-24T10:51:06.037Z,10.60
2022-12-24T10:53:43.517Z,10.47
2022-12-24T10:56:18.280Z,10.47
2022-12-24T10:58:57.390Z,10.44
2022-12-24T11:01:47.731Z,10.39
2022-12-24T11:04:20.490Z,10.38
2022-12-24T11:07:01.451Z,10.39
2022-12-24T11:09:35.130Z,10.44
2022-12-24T11:12:09.757Z,10.45
2022-12-24T11:14:43.169Z,10.48
2022-12-24T11:17:23.629Z,10.48
2022-12-24T11:19:54.557Z,10.46
2022-12-24T11:22:28.087Z,10.49
2022-12-24T11:25:05.093Z,10.54
2022-12-24T11:27:49.826Z,10.52
2022-12-24T11:30:32.151Z,10.48
2022-12-24T11:33:31.372Z,10.44
2022-12-24T11:36:09.650Z,10.37
2022-12-24T11:38:41.229Z,10.29
2022-12-24T11:41:14.225Z,10.24
2022-12-24T11:43:47.443Z,10.25
2022-12-24T11:46:24.303Z,10.30
2022-12-24T11:49:16.059Z,10.31
2022-12-24T11:52:05.310Z,10.25
2022-12-24T11:54:45.931Z,10.20
2022-12-24T11:57:19.247Z,10.18
2022-12-24T11:59:52.347Z,10.10
2022-12-24T12:02:29.932Z,10.17
2022-12-24T12:05:04.309Z,10.07
2022-12-24T12:07:38.418Z,10.02
2022-12-24T12:10:14.598Z,9.92
2022-12-24T12:12:49.409Z,9.84
2022-12-24T12:15:23.315Z,9.76
2022-12-24T12:18:00.369Z,9.76
2022-12-24T12:20:35.560Z,9.74
2022-12-24T12:23:16.229Z,9.81
2022-12-24T12:25:53.656Z,9.86
2022-12-24T12:28:26.513Z,9.89
2022-12-24T12:31:09.068Z,9.90
2022-12-24T12:33:53.033Z,10.01
2022-12-24T12:36:31.400Z,10.00
2022-12-24T12:39:02.021Z,9.95
2022-12-24T12:41:47.927Z,9.91
2022-12-24T12:44:44.047Z,9.91
2022-12-24T12:47:35.051Z,9.79
2022-12-24T12:50:15.719Z,9.88
2022-12-24T12:53:16.653Z,9.96
2022-12-24T12:56:10.096Z,10.19
2022-12-24T12:58:44.910Z,10.32
2022-12-24T13:01:30.478Z,10.31
2022-12-24T13:04:50.950Z,10.31
2022-12-24T13:08:00.587Z,10.35
2022-12-24T13:11:07.203Z,10.36
2022-12-24T13:13:54.142Z,10.39
2022-12-24T13:16:55.724Z,10.39
2022-12-24T13:19:40.393Z,10.33
2022-12-24T13:22:18.541Z,10.33
2022-12-24T13:25:03.397Z,10.37
2022-12-24T13:27:35.623Z,10.48
2022-12-24T13:30:17.865Z,10.55
2022-12-24T13:32:53.507Z,10.55
2022-12-24T13:35:40.861Z,10.55
2022-12-24T13:38:53.244Z,10.47
2022-12-24T13:41:59.092Z,10.13
2022-12-24T13:44:36.188Z,9.78
2022-12-24T13:47:25.263Z,9.55
2022-12-24T13:50:15.305Z,9.30
2022-12-24T13:52:56.315Z,9.16
2022-12-24T13:55:26.949Z,9.19
2022-12-24T13:58:01.432Z,9.14
2022-12-24T14:00:47.687Z,9.08
2022-12-24T14:03:28.296Z,9.00
2022-12-24T14:06:03.249Z,8.92
2022-12-24T14:08:42.469Z,8.76
2022-12-24T14:11:19.285Z,8.78
2022-12-24T14:14:30.572Z,8.77
2022-12-24T14:17:16.851Z,8.74
2022-12-24T14:19:51.283Z,8.68
2022-12-24T14:22:32.082Z,8.66
2022-12-24T14:25:05.543Z,8.66
2022-12-24T14:27:42.959Z,8.76
2022-12-24T14:30:23.064Z,8.78
2022-12-24T14:32:57.824Z,8.78
2022-12-24T14:35:30.784Z,8.75
2022-12-24T14:38:04.719Z,8.83
2022-12-24T14:40:37.650Z,8.86
2022-12-24T14:43:17.985Z,8.84
2022-12-24T14:45:54.673Z,8.76
2022-12-24T14:48:35.775Z,8.73
2022-12-24T14:51:17.009Z,8.69
2022-12-24T14:54:07.590Z,8.69
2022-12-24T14:56:38.094Z,8.57
2022-12-24T14:59:18.550Z,8.77
2022-12-24T15:01:49.934Z,8.78
2022-12-24T15:04:23.096Z,8.80
2022-12-24T15:06:56.791Z,8.87
2022-12-24T15:09:32.026Z,8.82
2022-12-24T15:12:05.743Z,8.98
2022-12-24T15:14:44.748Z,9.00
2022-12-24T15:17:18.396Z,8.99
2022-12-24T15:19:54.664Z,8.82
2022-12-24T15:22:28.457Z,8.91
2022-12-24T15:24:59.029Z,8.91
2022-12-24T15:27:35.194Z,8.90
2022-12-24T15:30:16.089Z,8.90
2022-12-24T15:32:46.799Z,8.87
2022-12-24T15:35:36.278Z,8.82
2022-12-24T15:38:07.164Z,8.78
2022-12-24T15:40:37.957Z,8.74
2022-12-24T15:43:09.131Z,8.65
2022-12-24T15:45:48.521Z,8.79
2022-12-24T15:48:24.013Z,8.86
2022-12-24T15:51:00.349Z,8.89
2022-12-24T15:53:33.630Z,8.91
2022-12-24T15:56:33.777Z,8.88
2022-12-24T15:59:35.986Z,8.88
2022-12-24T16:02:35.918Z,8.91
2022-12-24T16:05:31.541Z,8.91
2022-12-24T16:08:25.497Z,8.91
2022-12-24T16:11:11.845Z,8.87
2022-12-24T16:13:45.287Z,8.81
2022-12-24T16:16:25.695Z,8.82
2022-12-24T16:18:58.779Z,8.66
2022-12-24T16:21:34.284Z,8.80
2022-12-24T16:24:15.756Z,8.80
2022-12-24T16:26:46.218Z,8.85
2022-12-24T16:29:19.384Z,8.91
2022-12-24T16:31:54.115Z,8.93
2022-12-24T16:34:27.877Z,9.02
2022-12-24T16:36:59.154Z,9.03
2022-12-24T16:39:35.138Z,9.10
2022-12-24T16:42:19.611Z,9.13
2022-12-24T16:44:51.072Z,9.12
2022-12-24T16:47:24.830Z,9.10
2022-12-24T16:49:55.808Z,9.09
2022-12-24T16:52:29.214Z,9.10
2022-12-24T16:55:03.694Z,9.09
2022-12-24T16:57:36.596Z,9.05
2022-12-24T17:00:10.117Z,9.00
2022-12-24T17:02:42.285Z,8.92
2022-12-24T17:05:13.336Z,8.81
2022-12-24T17:07:44.401Z,8.69
2022-12-24T17:10:18.129Z,8.64
2022-12-24T17:12:48.913Z,8.57
2022-12-24T17:15:19.550Z,8.51
2022-12-24T17:17:50.189Z,8.45
2022-12-24T17:20:24.983Z,8.44
2022-12-24T17:22:55.560Z,8.39
2022-12-24T17:25:34.387Z,8.37
2022-12-24T17:28:05.049Z,8.32
2022-12-24T17:30:36.031Z,8.27
2022-12-24T17:33:14.159Z,8.27
2022-12-24T17:35:48.451Z,8.22
2022-12-24T17:38:18.923Z,8.15
2022-12-24T17:40:52.439Z,8.20
2022-12-24T17:43:23.218Z,8.19
2022-12-24T17:45:56.720Z,8.21
2022-12-24T17:48:27.750Z,8.01
2022-12-24T17:50:58.214Z,8.18
2022-12-24T17:53:39.548Z,8.15
2022-12-24T17:56:15.582Z,8.09
2022-12-24T17:58:49.445Z,8.07
2022-12-24T18:01:23.616Z,8.06
2022-12-24T18:03:55.997Z,7.95
2022-12-24T18:06:26.594Z,8.02
2022-12-24T18:09:00.640Z,7.96
2022-12-24T18:11:36.631Z,7.96
2022-12-24T18:14:08.309Z,7.91
2022-12-24T18:16:40.322Z,7.97
2022-12-24T18:19:13.375Z,7.96
2022-12-24T18:21:45.087Z,7.98
2022-12-24T18:24:16.248Z,7.95
2022-12-24T18:26:49.620Z,7.97
2022-12-24T18:29:20.223Z,8.03
2022-12-24T18:31:50.841Z,8.13
2022-12-24T18:34:21.307Z,8.19
2022-12-24T18:36:55.408Z,8.18
2022-12-24T18:39:27.028Z,8.24
2022-12-24T18:42:00.685Z,8.24
2022-12-24T18:44:32.932Z,8.33
2022-12-24T18:47:03.449Z,8.40
2022-12-24T18:49:34.061Z,8.40
2022-12-24T18:52:05.922Z,8.23
2022-12-24T18:54:36.443Z,8.20
2022-12-24T18:57:09.971Z,8.13
2022-12-24T18:59:42.182Z,8.13
2022-12-24T19:02:15.745Z,8.15
2022-12-24T19:04:47.025Z,8.06
2022-12-24T19:07:17.968Z,7.97
2022-12-24T19:09:49.217Z,7.91
2022-12-24T19:12:22.345Z,7.90
2022-12-24T19:14:52.915Z,7.97
2022-12-24T19:17:23.497Z,7.98
2022-12-24T19:19:55.789Z,8.00
2022-12-24T19:22:28.205Z,8.04
2022-12-24T19:24:58.823Z,8.10
2022-12-24T19:27:31.876Z,8.14
2022-12-24T19:30:02.313Z,8.09
2022-12-24T19:32:32.967Z,8.05
2022-12-24T19:35:06.935Z,7.97
2022-12-24T19:37:37.544Z,7.91
2022-12-24T19:40:09.617Z,7.81
2022-12-24T19:42:42.787Z,7.92
2022-12-24T19:45:14.654Z,7.92
2022-12-24T19:47:45.105Z,7.89
2022-12-24T19:50:16.189Z,7.87
2022-12-24T19:52:47.342Z,7.93
2022-12-24T19:55:18.374Z,7.92
2022-12-24T19:57:51.997Z,7.89
2022-12-24T20:00:31.540Z,7.77
2022-12-24T20:03:02.465Z,7.74
2022-12-24T20:05:34.149Z,7.68
2022-12-24T20:08:04.644Z,7.63
2022-12-24T20:10:35.070Z,7.61
2022-12-24T20:13:12.446Z,7.58
2022-12-24T20:15:43.758Z,7.55
2022-12-24T20:18:20.711Z,7.53
2022-12-24T20:20:51.281Z,7.50
2022-12-24T20:23:21.810Z,7.49
2022-12-24T20:25:59.655Z,7.47
2022-12-24T20:28:35.146Z,7.46
2022-12-24T20:31:13.280Z,7.43
2022-12-24T20:33:44.494Z,7.36
2022-12-24T20:36:19.943Z,7.37
2022-12-24T20:38:51.510Z,7.36
2022-12-24T20:41:24.164Z,7.33
2022-12-24T20:43:57.463Z,7.29
2022-12-24T20:46:28.169Z,7.29
2022-12-24T20:48:59.961Z,7.29
2022-12-24T20:51:32.509Z,7.29
2022-12-24T20:54:03.581Z,7.26
2022-12-24T20:56:34.190Z,7.24
2022-12-24T20:59:08.296Z,7.24
2022-12-24T21:01:39.439Z,7.20
2022-12-24T21:04:10.625Z,7.19
2022-12-24T21:06:41.656Z,7.19
2022-12-24T21:09:13.488Z,7.16
2022-12-24T21:11:59.446Z,7.24
2022-12-24T21:14:32.739Z,7.22
2022-12-24T21:17:08.361Z,7.27
2022-12-24T21:19:41.354Z,7.26
2022-12-24T21:22:12.079Z,7.23
2022-12-24T21:24:43.330Z,7.20
2022-12-24T21:27:13.795Z,7.21
2022-12-24T21:29:47.060Z,7.19
2022-12-24T21:32:17.588Z,7.14
2022-12-24T21:34:48.026Z,7.11
2022-12-24T21:37:19.937Z,7.04
2022-12-24T21:39:50.837Z,7.05
2022-12-24T21:42:21.624Z,7.05
2022-12-24T21:44:54.708Z,7.03
2022-12-24T21:47:32.965Z,7.00
2022-12-24T21:50:15.848Z,7.02
2022-12-24T21:52:46.518Z,7.03
2022-12-24T21:55:14.537Z,7.03
2022-12-24T21:57:57.206Z,7.05
2022-12-24T22:00:32.629Z,7.00
2022-12-24T22:03:12.121Z,7.04
2022-12-24T22:05:43.049Z,7.03
2022-12-24T22:08:26.326Z,7.00
2022-12-24T22:11:26.706Z,6.94
2022-12-24T22:13:57.215Z,6.76
2022-12-24T22:16:31.668Z,6.87
2022-12-24T22:19:02.267Z,6.68
2022-12-24T22:21:34.689Z,6.80
2022-12-24T22:24:07.191Z,6.82
2022-12-24T22:26:37.791Z,6.89
2022-12-24T22:29:15.219Z,6.82
2022-12-24T22:31:48.450Z,6.90
2022-12-24T22:34:19.164Z,6.89
2022-12-24T22:36:49.863Z,6.79
2022-12-24T22:39:21.200Z,6.82
2022-12-24T22:41:54.366Z,6.79
2022-12-24T22:44:24.973Z,6.78
2022-12-24T22:46:57.952Z,6.75
2022-12-24T22:49:29.761Z,6.76
2022-12-24T22:52:00.664Z,6.74
2022-12-24T22:54:31.369Z,6.73
2022-12-24T22:57:06.500Z,6.70
2022-12-24T22:59:38.954Z,6.63
2022-12-24T23:02:13.619Z,6.37
2022-12-24T23:04:44.496Z,6.51
2022-12-24T23:07:15.873Z,6.47
2022-12-24T23:09:48.091Z,6.40
2022-12-24T23:12:39.390Z,6.37
2022-12-24T23:15:08.752Z,6.34
2022-12-24T23:17:41.935Z,6.27
2022-12-24T23:20:14.796Z,6.22
2022-12-24T23:22:45.337Z,6.21
2022-12-24T23:25:15.735Z,6.17
2022-12-24T23:27:46.208Z,6.20
2022-12-24T23:30:17.086Z,6.22
2022-12-24T23:32:50.847Z,6.23
2022-12-24T23:35:21.397Z,6.26
2022-12-24T23:37:54.675Z,6.30
2022-12-24T23:40:25.313Z,6.30
2022-12-24T23:42:58.182Z,6.28
2022-12-24T23:45:28.778Z,6.30
2022-12-24T23:48:01.891Z,6.29
2022-12-24T23:50:32.546Z,6.27
2022-12-24T23:53:03.026Z,6.20
2022-12-24T23:55:34.281Z,6.18
2022-12-24T23:58:04.919Z,6.12
